Time;durP1;ratioP1;P1;durP2;ratioP2;P2;SDS_P1;SDS_P2;PMS_P1;PMS_P2;Temp;Humidity;BMP_temperature;BMP_pressure;BME280_temperature;BME280_humidity;BME280_pressure;Samples;Min_cycle;Max_cycle;Signal;HPM_P1;HPM_P2
2022/10/21 00:00:38;;;;;;;12.57;6.27;;;;;;;10.00;100.00;102415.59;2055036;28;20192;-62
2022/10/21 00:01:39;;;;;;;12.03;6.70;;;;;;;9.98;100.00;102415.97;2053724;28;20226;-62
2022/10/21 00:02:39;;;;;;;12.50;7.10;;;;;;;9.94;100.00;102420.69;2054981;28;20454;-62
2022/10/21 00:03:40;;;;;;;13.37;6.33;;;;;;;9.92;100.00;102420.28;2055019;28;20198;-62
2022/10/21 00:04:40;;;;;;;16.93;6.13;;;;;;;9.91;100.00;102426.22;2055180;28;20206;-62
2022/10/21 00:05:41;;;;;;;19.23;8.13;;;;;;;9.87;100.00;102420.66;2054767;28;20195;-62
2022/10/21 00:06:41;;;;;;;20.20;8.17;;;;;;;9.83;100.00;102419.81;2055341;28;20576;-62
2022/10/21 00:07:41;;;;;;;21.57;8.80;;;;;;;9.81;100.00;102426.94;2054884;28;20190;-62
2022/10/21 00:08:42;;;;;;;20.93;8.70;;;;;;;9.80;100.00;102426.16;2055484;28;20674;-62
2022/10/21 00:09:42;;;;;;;17.83;7.00;;;;;;;9.79;100.00;102423.75;2055127;28;20188;-62
2022/10/21 00:10:43;;;;;;;16.07;6.67;;;;;;;9.78;100.00;102424.94;2055489;28;20188;-62
2022/10/21 00:11:44;;;;;;;13.50;6.67;;;;;;;9.75;100.00;102434.00;2054888;28;20202;-62
2022/10/21 00:12:44;;;;;;;9.40;6.37;;;;;;;9.69;100.00;102430.00;2055358;28;20239;-62
2022/10/21 00:13:44;;;;;;;12.03;6.27;;;;;;;9.71;100.00;102433.16;2055007;28;20185;-62
2022/10/21 00:14:45;;;;;;;11.57;6.30;;;;;;;9.70;100.00;102434.34;2055866;28;20182;-62
2022/10/21 00:16:06;;;;;;;13.53;6.30;;;;;;;9.69;100.00;102432.78;2054955;28;20219;-62
2022/10/21 00:17:07;;;;;;;13.10;5.90;;;;;;;9.69;100.00;102427.22;2054168;28;20263;-62
2022/10/21 00:18:07;;;;;;;9.83;5.87;;;;;;;9.69;100.00;102428.00;2055565;28;20469;-62
2022/10/21 00:19:07;;;;;;;8.53;5.90;;;;;;;9.68;100.00;102433.94;2054956;28;20201;-62
2022/10/21 00:20:11;;;;;;;11.70;6.43;;;;;;;9.68;100.00;102429.19;2055366;28;20275;-62
2022/10/21 00:21:20;;;;;;;8.90;6.50;;;;;;;9.66;100.00;102434.34;2054705;28;20205;-62
2022/10/21 00:22:21;;;;;;;11.60;6.13;;;;;;;9.64;100.00;102436.66;2055051;28;20493;-62
2022/10/21 00:23:21;;;;;;;8.70;5.63;;;;;;;9.65;100.00;102432.75;2054463;28;20448;-62
2022/10/21 00:24:22;;;;;;;8.83;6.00;;;;;;;9.65;100.00;102434.72;2055137;28;20187;-62
2022/10/21 00:25:22;;;;;;;8.33;5.57;;;;;;;9.61;100.00;102431.09;2054442;28;20181;-62
2022/10/21 00:26:23;;;;;;;8.93;6.00;;;;;;;9.64;100.00;102438.66;2054885;28;20275;-63
2022/10/21 00:27:23;;;;;;;8.37;6.07;;;;;;;9.65;100.00;102443.00;2055188;28;20236;-62
2022/10/21 00:28:24;;;;;;;7.07;5.80;;;;;;;9.64;100.00;102442.19;2055384;28;20193;-62
2022/10/21 00:29:25;;;;;;;7.27;5.50;;;;;;;9.65;100.00;102438.28;2054944;28;20613;-62
2022/10/21 00:30:25;;;;;;;9.80;5.70;;;;;;;9.65;100.00;102434.72;2054901;28;20457;-62
2022/10/21 00:31:27;;;;;;;9.27;6.67;;;;;;;9.63;100.00;102428.75;2054846;28;20311;-62
2022/10/21 00:32:27;;;;;;;8.38;6.20;;;;;;;9.63;100.00;102442.59;2054774;28;20202;-62
2022/10/21 00:33:28;;;;;;;12.03;6.63;;;;;;;9.63;100.00;102437.84;2055133;28;20188;-62
2022/10/21 00:34:28;;;;;;;8.77;6.50;;;;;;;9.63;100.00;102437.06;2055225;28;20185;-62
2022/10/21 00:35:32;;;;;;;8.53;6.40;;;;;;;9.07;100.00;102364.59;2055007;28;20526;-62
2022/10/21 00:36:32;;;;;;;8.93;7.00;;;;;;;9.59;100.00;102436.25;2055241;28;20572;-62
2022/10/21 00:37:33;;;;;;;11.03;6.20;;;;;;;9.42;100.00;102418.28;2053639;28;20485;-62
2022/10/21 00:38:34;;;;;;;9.43;6.00;;;;;;;9.54;100.00;102434.59;2054636;28;20643;-62
2022/10/21 00:39:35;;;;;;;6.80;6.10;;;;;;;9.54;100.00;102436.59;2054952;28;20197;-62
2022/10/21 00:40:36;;;;;;;8.03;5.63;;;;;;;9.43;100.00;102427.41;2054795;28;20539;-62
2022/10/21 00:41:36;;;;;;;8.50;5.93;;;;;;;9.46;100.00;102438.50;2054521;28;20432;-62
2022/10/21 00:42:39;;;;;;;11.70;5.80;;;;;;;9.43;100.00;102438.47;2055160;28;20218;-62
2022/10/21 00:44:13;;;;;;;8.63;5.00;;;;;;;9.34;100.00;102436.00;2055083;28;20455;-62
2022/10/21 00:45:18;;;;;;;5.75;4.50;;;;;;;9.17;100.00;102447.69;2049308;28;20475;-62
2022/10/21 00:46:19;;;;;;;8.60;4.78;;;;;;;9.10;100.00;102432.97;2054450;28;20204;-64
2022/10/21 00:47:21;;;;;;;7.15;5.03;;;;;;;9.04;100.00;102434.50;2053876;28;20185;-64
2022/10/21 00:48:28;;;;;;;8.88;5.30;;;;;;;8.98;100.00;102431.25;2055214;28;20192;-64
2022/10/21 00:49:54;;;;;;;7.75;5.07;;;;;;;8.85;100.00;102432.69;2055039;28;20186;-65
2022/10/21 00:51:06;;;;;;;8.48;5.72;;;;;;;8.77;100.00;102436.53;2054399;28;20575;-65
2022/10/21 00:52:13;;;;;;;9.33;6.37;;;;;;;8.58;100.00;102417.38;2054813;28;20644;-64
2022/10/21 00:53:15;;;;;;;10.80;6.23;;;;;;;8.63;100.00;102439.16;2054941;28;20445;-64
2022/10/21 00:54:18;;;;;;;7.97;6.03;;;;;;;8.57;100.00;102442.59;2054900;28;20502;-65
2022/10/21 00:55:20;;;;;;;7.70;6.23;;;;;;;8.50;100.00;102437.78;2054293;28;20441;-65
2022/10/21 00:56:29;;;;;;;9.03;5.93;;;;;;;8.46;100.00;102447.97;2055005;28;20440;-64
2022/10/21 00:57:33;;;;;;;8.57;5.63;;;;;;;8.41;100.00;102442.78;2054336;28;20454;-64
2022/10/21 00:58:36;;;;;;;8.63;5.63;;;;;;;7.78;100.00;102360.94;2054653;28;20500;-64
2022/10/21 00:59:41;;;;;;;8.23;6.00;;;;;;;8.15;100.00;102440.00;2054610;28;20522;-64
2022/10/21 01:00:41;;;;;;;9.90;6.20;;;;;;;8.05;100.00;102440.63;2054982;28;20614;-64
2022/10/21 01:01:42;;;;;;;9.83;6.53;;;;;;;7.96;100.00;102445.66;2054637;28;20524;-64
2022/10/21 01:02:43;;;;;;;8.27;6.60;;;;;;;7.89;100.00;102442.75;2054844;28;20212;-64
2022/10/21 01:03:43;;;;;;;8.80;6.60;;;;;;;7.79;100.00;102446.16;2054974;28;20303;-64
2022/10/21 01:04:45;;;;;;;13.07;6.67;;;;;;;7.76;100.00;102444.16;2055075;28;20206;-64
2022/10/21 01:05:46;;;;;;;8.85;6.80;;;;;;;7.74;100.00;102440.16;2054217;28;20195;-65
2022/10/21 01:06:47;;;;;;;10.25;7.10;;;;;;;7.71;100.00;102451.91;2054813;28;20187;-64
2022/10/21 01:07:49;;;;;;;13.80;7.03;;;;;;;7.50;100.00;102448.81;2054963;28;20227;-64
2022/10/21 01:08:53;;;;;;;10.65;7.15;;;;;;;7.61;100.00;102444.25;2055118;28;20199;-65
2022/10/21 01:09:53;;;;;;;11.88;7.43;;;;;;;7.54;100.00;102447.69;2054860;28;20587;-64
2022/10/21 01:10:54;;;;;;;10.40;7.13;;;;;;;7.52;100.00;102447.25;2054833;28;20290;-64
2022/10/21 01:11:55;;;;;;;9.45;6.97;;;;;;;7.47;100.00;102446.75;2054058;28;20191;-64
2022/10/21 01:13:14;;;;;;;8.60;7.13;;;;;;;7.42;100.00;102441.56;2054640;28;20281;-64
2022/10/21 01:14:42;;;;;;;10.60;7.68;;;;;;;7.42;100.00;102445.13;2054931;28;20190;-64
2022/10/21 01:15:43;;;;;;;11.57;7.57;;;;;;;7.44;100.00;102453.81;2054532;28;20222;-65
2022/10/21 01:16:55;;;;;;;10.20;7.70;;;;;;;7.43;100.00;102457.75;2055014;28;20722;-64
2022/10/21 01:18:17;;;;;;;9.95;7.57;;;;;;;7.34;100.00;102461.91;2054382;28;20220;-64
2022/10/21 01:20:03;;;;;;;9.02;7.65;;;;;;;7.33;100.00;102474.13;2055011;28;20183;-64
2022/10/21 01:21:10;;;;;;;11.68;7.15;;;;;;;7.35;100.00;102463.50;2042200;28;20487;-64
2022/10/21 01:22:49;;;;;;;9.85;7.78;;;;;;;7.35;100.00;102461.56;2054952;28;20198;-64
2022/10/21 01:23:55;;;;;;;11.48;7.20;;;;;;;7.36;100.00;102468.66;2054350;28;20218;-64
2022/10/21 01:25:26;;;;;;;10.75;7.95;;;;;;;7.38;100.00;102463.56;2054427;28;20202;-64
2022/10/21 01:26:29;;;;;;;12.73;7.50;;;;;;;7.40;100.00;102466.75;2053855;28;20711;-64
2022/10/21 01:27:42;;;;;;;10.50;7.60;;;;;;;7.39;100.00;102467.91;2054312;28;20580;-64
2022/10/21 01:29:30;;;;;;;9.55;7.75;;;;;;;7.40;100.00;102466.75;2054342;28;20190;-64
2022/10/21 01:30:52;;;;;;;10.32;7.38;;;;;;;7.40;100.00;102475.03;2059946;28;20209;-64
2022/10/21 01:32:11;;;;;;;9.63;6.82;;;;;;;7.37;100.00;102474.94;2059736;28;20198;-64
2022/10/21 01:33:29;;;;;;;11.45;7.15;;;;;;;7.33;100.00;102474.13;2055379;28;20614;-64
2022/10/21 01:34:51;;;;;;;13.38;9.05;;;;;;;7.37;100.00;102477.72;2054972;28;20640;-64
2022/10/21 01:35:59;;;;;;;13.10;7.63;;;;;;;7.38;100.00;102480.09;2054255;28;20793;-64
2022/10/21 01:37:41;;;;;;;17.33;7.50;;;;;;;7.39;100.00;102489.97;2054673;28;20187;-64
2022/10/21 01:39:15;;;;;;;11.45;6.65;;;;;;;7.38;100.00;102484.84;2055051;28;20198;-64
2022/10/21 01:40:25;;;;;;;9.27;6.93;;;;;;;7.38;100.00;102482.09;2053965;28;20183;-64
2022/10/21 01:41:38;;;;;;;11.02;7.00;;;;;;;6.93;100.00;102415.84;2053449;28;20193;-64
2022/10/21 01:42:48;;;;;;;10.02;7.22;;;;;;;7.37;100.00;102484.03;2054847;28;20182;-64
2022/10/21 01:44:19;;;;;;;11.75;6.93;;;;;;;7.38;100.00;102487.59;2054630;28;20182;-64
2022/10/21 01:45:36;;;;;;;8.45;6.70;;;;;;;7.42;100.00;102494.78;2054279;28;20190;-64
2022/10/21 01:47:08;;;;;;;11.40;7.03;;;;;;;6.61;100.00;102365.59;2054978;28;20273;-64
2022/10/21 01:48:23;;;;;;;9.50;6.95;;;;;;;7.38;100.00;102491.13;2055523;28;20684;-65
2022/10/21 01:50:02;;;;;;;8.65;6.28;;;;;;;7.37;100.00;102488.75;2055914;28;20652;-64
2022/10/21 01:51:06;;;;;;;10.73;6.85;;;;;;;7.37;100.00;102485.97;2058917;28;20212;-65
2022/10/21 01:52:07;;;;;;;8.90;6.82;;;;;;;7.29;100.00;102476.00;2056840;28;20241;-64
2022/10/21 01:53:12;;;;;;;9.10;6.80;;;;;;;7.32;100.00;102489.84;2056538;28;20194;-64
2022/10/21 01:54:20;;;;;;;13.90;7.13;;;;;;;6.83;100.00;102414.44;2056144;28;20672;-64
2022/10/21 01:55:25;;;;;;;11.15;7.85;;;;;;;7.32;100.00;102497.31;2055903;28;20179;-64
2022/10/21 01:56:27;;;;;;;11.07;6.82;;;;;;;7.32;100.00;102494.56;2056006;28;20288;-64
2022/10/21 01:57:32;;;;;;;9.00;7.07;;;;;;;7.29;100.00;102493.31;2055408;28;20187;-64
2022/10/21 01:58:36;;;;;;;9.15;6.80;;;;;;;6.71;100.00;102400.03;2056870;28;20187;-64
2022/10/21 01:59:38;;;;;;;9.40;6.40;;;;;;;7.14;100.00;102483.22;2055890;28;20183;-64
2022/10/21 02:00:40;;;;;;;9.15;7.00;;;;;;;7.29;100.00;102507.13;2056337;28;20191;-64
2022/10/21 02:01:43;;;;;;;8.65;6.55;;;;;;;7.26;100.00;102490.50;2056130;28;20198;-64
2022/10/21 02:02:47;;;;;;;9.85;8.55;;;;;;;7.29;100.00;102506.34;2055750;28;20216;-64
2022/10/21 02:03:53;;;;;;;10.57;7.90;;;;;;;7.29;100.00;102498.84;2056382;28;20273;-64
2022/10/21 02:04:57;;;;;;;10.15;6.95;;;;;;;7.27;100.00;102495.66;2056050;28;20715;-64
2022/10/21 02:05:58;;;;;;;9.45;6.75;;;;;;;7.26;100.00;102505.09;2056082;28;20190;-64
2022/10/21 02:06:59;;;;;;;10.03;8.03;;;;;;;7.26;100.00;102505.09;2055852;28;20198;-64
2022/10/21 02:07:59;;;;;;;15.13;7.37;;;;;;;7.26;100.00;102501.53;2056155;28;20776;-64
2022/10/21 02:09:00;;;;;;;11.47;7.13;;;;;;;7.26;100.00;102504.28;2055998;28;20190;-64
2022/10/21 02:10:00;;;;;;;10.43;7.40;;;;;;;7.23;100.00;102499.53;2057000;28;20269;-64
2022/10/21 02:11:04;;;;;;;11.00;7.37;;;;;;;7.23;100.00;102503.06;2055878;28;20190;-64
2022/10/21 02:12:06;;;;;;;10.13;7.97;;;;;;;7.22;100.00;102504.22;2056285;28;20198;-64
2022/10/21 02:13:09;;;;;;;12.18;9.15;;;;;;;7.21;100.00;102499.06;2056035;28;20191;-64
2022/10/21 02:14:18;;;;;;;15.00;8.95;;;;;;;7.20;100.00;102509.31;2056202;28;20237;-64
2022/10/21 02:15:22;;;;;;;9.32;7.45;;;;;;;7.11;100.00;102494.97;2055405;28;20257;-64
2022/10/21 02:16:27;;;;;;;10.77;7.53;;;;;;;7.19;100.00;102502.22;2056205;28;20249;-64
2022/10/21 02:17:28;;;;;;;12.10;8.40;;;;;;;6.74;100.00;102438.69;2055302;28;20187;-64
2022/10/21 02:18:28;;;;;;;9.17;7.40;;;;;;;6.85;100.00;102459.00;2056273;28;20190;-64
2022/10/21 02:19:30;;;;;;;9.87;7.50;;;;;;;7.13;100.00;102494.59;2055921;28;20487;-64
2022/10/21 02:20:35;;;;;;;10.35;8.15;;;;;;;7.05;100.00;102496.41;2056401;28;20278;-64
2022/10/21 02:21:36;;;;;;;11.27;8.20;;;;;;;7.08;100.00;102505.91;2056323;28;20183;-64
2022/10/21 02:22:39;;;;;;;11.20;8.60;;;;;;;7.03;100.00;102509.75;2056434;28;20206;-64
2022/10/21 02:23:47;;;;;;;11.20;8.57;;;;;;;7.02;100.00;102516.44;2055328;28;20204;-64
2022/10/21 02:24:55;;;;;;;11.57;8.57;;;;;;;6.98;100.00;102523.03;2056163;28;20657;-64
2022/10/21 02:25:56;;;;;;;11.15;8.23;;;;;;;6.98;100.00;102529.31;2055952;28;20218;-64
2022/10/21 02:26:56;;;;;;;12.27;8.07;;;;;;;6.95;100.00;102527.31;2054815;28;20198;-64
2022/10/21 02:27:57;;;;;;;9.60;7.67;;;;;;;6.89;100.00;102517.75;2055409;28;20274;-64
2022/10/21 02:28:58;;;;;;;9.63;8.63;;;;;;;6.97;100.00;102527.75;2056113;28;20197;-64
2022/10/21 02:30:00;;;;;;;12.07;8.83;;;;;;;7.00;100.00;102529.78;2056064;28;20226;-64
2022/10/21 02:31:08;;;;;;;11.65;8.65;;;;;;;7.02;100.00;102534.94;2055746;28;20489;-64
2022/10/21 02:32:23;;;;;;;10.68;8.00;;;;;;;7.03;100.00;102531.03;2055824;28;20687;-64
2022/10/21 02:33:55;;;;;;;8.95;7.78;;;;;;;7.05;100.00;102536.97;2055770;28;20656;-64
2022/10/21 02:35:04;;;;;;;11.25;8.60;;;;;;;7.08;100.00;102533.50;2055325;28;20865;-64
2022/10/21 02:36:14;;;;;;;10.43;7.88;;;;;;;6.81;100.00;102502.22;2055924;28;20201;-64
2022/10/21 02:37:27;;;;;;;14.52;8.13;;;;;;;7.07;100.00;102531.91;2055539;28;20199;-64
2022/10/21 02:39:08;;;;;;;11.20;7.45;;;;;;;7.09;100.00;102529.56;2055977;28;20357;-64
2022/10/21 02:40:16;;;;;;;10.18;8.48;;;;;;;6.92;100.00;102518.97;2046164;29;20195;-64
2022/10/21 02:41:22;;;;;;;10.38;8.60;;;;;;;6.61;100.00;102461.22;2045631;28;20195;-64
2022/10/21 02:42:27;;;;;;;12.30;8.90;;;;;;;7.02;100.00;102532.19;2050213;28;20207;-64
2022/10/21 02:43:39;;;;;;;13.93;8.85;;;;;;;6.99;100.00;102536.47;2055737;28;20186;-64
2022/10/21 02:44:40;;;;;;;10.93;8.77;;;;;;;6.96;100.00;102556.47;2056625;28;20181;-64
2022/10/21 02:45:41;;;;;;;12.23;9.40;;;;;;;6.60;100.00;102498.19;2055418;28;20198;-64
2022/10/21 02:46:43;;;;;;;12.50;8.77;;;;;;;6.95;100.00;102543.03;2056078;28;20183;-64
2022/10/21 02:47:47;;;;;;;10.40;8.48;;;;;;;6.49;100.00;102473.19;2054547;28;20190;-64
2022/10/21 02:48:48;;;;;;;11.63;8.85;;;;;;;6.94;100.00;102550.53;2055970;28;20194;-64
2022/10/21 02:49:48;;;;;;;14.75;8.38;;;;;;;6.97;100.00;102552.56;2055493;28;20197;-64
2022/10/21 02:50:49;;;;;;;12.43;8.67;;;;;;;6.98;100.00;102543.13;2056013;28;20187;-64
2022/10/21 02:51:49;;;;;;;11.77;8.40;;;;;;;6.81;100.00;102526.22;2055646;28;20281;-64
2022/10/21 02:52:50;;;;;;;13.17;7.87;;;;;;;6.97;100.00;102549.00;2055751;28;20183;-64
2022/10/21 02:53:50;;;;;;;11.80;8.00;;;;;;;6.99;100.00;102544.75;2056355;28;20218;-64
2022/10/21 02:54:51;;;;;;;10.40;8.30;;;;;;;7.00;100.00;102554.59;2055578;28;20636;-64
2022/10/21 02:55:51;;;;;;;17.50;8.53;;;;;;;6.97;100.00;102558.06;2055601;28;20251;-64
2022/10/21 02:56:51;;;;;;;15.30;10.47;;;;;;;6.92;100.00;102558.34;2055735;28;20261;-64
2022/10/21 02:57:52;;;;;;;22.53;20.23;;;;;;;6.83;100.00;102557.75;2055333;28;20273;-64
2022/10/21 02:58:53;;;;;;;13.10;11.27;;;;;;;6.83;100.00;102573.50;2055424;28;20237;-64
2022/10/21 02:59:53;;;;;;;14.98;11.95;;;;;;;6.81;100.00;102560.06;2054917;28;20190;-64
2022/10/21 03:00:54;;;;;;;11.97;8.57;;;;;;;6.83;100.00;102559.72;2055927;28;20185;-64
2022/10/21 03:01:54;;;;;;;16.57;11.83;;;;;;;6.84;100.00;102558.56;2056185;28;20627;-64
2022/10/21 03:02:55;;;;;;;17.07;9.97;;;;;;;6.83;100.00;102566.00;2055890;28;20561;-64
2022/10/21 03:03:55;;;;;;;17.20;10.10;;;;;;;6.85;100.00;102566.47;2055775;28;20201;-64
2022/10/21 03:04:56;;;;;;;13.67;7.90;;;;;;;6.79;100.00;102548.63;2055476;28;20736;-64
2022/10/21 03:05:56;;;;;;;11.70;8.50;;;;;;;6.84;100.00;102567.63;2055584;28;20277;-64
2022/10/21 03:06:57;;;;;;;10.20;7.47;;;;;;;6.85;100.00;102568.41;2055172;28;20614;-64
2022/10/21 03:07:57;;;;;;;11.23;7.30;;;;;;;6.86;100.00;102565.31;2055441;28;20182;-64
2022/10/21 03:08:58;;;;;;;10.13;7.97;;;;;;;6.85;100.00;102566.47;2056274;28;20218;-64
2022/10/21 03:09:58;;;;;;;10.60;7.93;;;;;;;6.85;100.00;102573.94;2056046;28;20668;-64
2022/10/21 03:10:59;;;;;;;10.57;7.50;;;;;;;6.80;100.00;102566.75;2055478;28;20700;-64
2022/10/21 03:11:59;;;;;;;11.43;7.90;;;;;;;6.83;100.00;102571.53;2055822;28;20190;-64
2022/10/21 03:13:00;;;;;;;11.07;7.77;;;;;;;6.79;100.00;102565.16;2054980;28;20194;-64
2022/10/21 03:14:00;;;;;;;13.13;7.70;;;;;;;6.70;100.00;102550.78;2055157;28;20295;-64
2022/10/21 03:15:01;;;;;;;8.63;7.17;;;;;;;6.80;100.00;102568.69;2055254;28;20273;-64
2022/10/21 03:16:01;;;;;;;12.67;8.80;;;;;;;6.79;100.00;102569.84;2055714;28;20187;-64
2022/10/21 03:17:02;;;;;;;10.30;7.93;;;;;;;6.74;100.00;102568.19;2055733;28;20214;-64
2022/10/21 03:18:02;;;;;;;10.73;8.10;;;;;;;6.67;100.00;102573.53;2055813;28;20210;-64
2022/10/21 03:19:03;;;;;;;13.77;8.77;;;;;;;6.62;100.00;102567.50;2055581;28;20199;-64
2022/10/21 03:20:04;;;;;;;11.80;8.50;;;;;;;6.62;100.00;102564.75;2055669;28;20571;-64
2022/10/21 03:21:04;;;;;;;9.47;7.47;;;;;;;6.56;100.00;102558.72;2055361;28;20195;-64
2022/10/21 03:22:05;;;;;;;11.57;8.60;;;;;;;6.60;100.00;102567.88;2055413;28;20190;-64
2022/10/21 03:23:05;;;;;;;12.20;8.30;;;;;;;6.57;100.00;102565.81;2055219;28;20626;-64
2022/10/21 03:24:06;;;;;;;9.30;7.73;;;;;;;6.54;100.00;102571.25;2054918;28;20684;-64
2022/10/21 03:25:07;;;;;;;10.97;7.70;;;;;;;5.99;100.00;102481.44;2055791;28;20197;-64
2022/10/21 03:26:07;;;;;;;9.38;8.05;;;;;;;6.54;100.00;102569.31;2056001;28;20232;-64
2022/10/21 03:27:08;;;;;;;11.43;8.00;;;;;;;6.08;100.00;102501.31;2054990;28;20727;-64
2022/10/21 03:28:08;;;;;;;10.57;8.20;;;;;;;6.51;100.00;102569.22;2054902;28;20190;-64
2022/10/21 03:29:09;;;;;;;17.00;8.23;;;;;;;6.52;100.00;102577.09;2055438;28;20742;-64
2022/10/21 03:30:10;;;;;;;12.82;8.48;;;;;;;6.45;100.00;102570.63;2055264;28;20691;-64
2022/10/21 03:31:10;;;;;;;10.50;8.87;;;;;;;6.44;100.00;102571.78;2055310;28;20796;-64
2022/10/21 03:32:11;;;;;;;11.07;8.70;;;;;;;6.39;100.00;102572.88;2055625;28;20219;-64
2022/10/21 03:33:11;;;;;;;17.27;8.70;;;;;;;6.07;100.00;102520.94;2056081;28;20865;-64
2022/10/21 03:34:12;;;;;;;11.03;8.90;;;;;;;6.43;100.00;102571.00;2055483;28;20872;-64
2022/10/21 03:35:12;;;;;;;13.10;9.10;;;;;;;6.44;100.00;102563.53;2055064;28;22197;-64
2022/10/21 03:36:12;;;;;;;13.27;8.70;;;;;;;6.47;100.00;102566.38;2055425;28;20217;-64
2022/10/21 03:37:13;;;;;;;12.30;8.90;;;;;;;5.96;100.00;102489.63;2054841;28;20255;-64
2022/10/21 03:38:13;;;;;;;13.20;9.93;;;;;;;6.42;100.00;102557.59;2055291;28;20210;-64
2022/10/21 03:39:14;;;;;;;11.07;8.93;;;;;;;6.50;100.00;102562.91;2055269;28;20675;-64
2022/10/21 03:40:14;;;;;;;12.60;9.33;;;;;;;6.53;100.00;102569.66;2055641;28;20240;-64
2022/10/21 03:41:15;;;;;;;12.07;8.83;;;;;;;6.55;100.00;102570.09;2055845;28;20289;-64
2022/10/21 03:42:15;;;;;;;12.13;9.57;;;;;;;6.57;100.00;102556.78;2055319;28;20280;-64
2022/10/21 03:43:16;;;;;;;11.30;9.47;;;;;;;6.58;100.00;102558.38;2055124;28;20194;-64
2022/10/21 03:44:16;;;;;;;13.50;9.80;;;;;;;6.47;100.00;102536.06;2055276;28;20198;-64
2022/10/21 03:45:16;;;;;;;13.60;9.73;;;;;;;6.61;100.00;102568.69;2054591;28;20198;-64
2022/10/21 03:46:17;;;;;;;14.53;9.40;;;;;;;6.60;100.00;102567.88;2055263;28;20278;-64
2022/10/21 03:47:17;;;;;;;11.00;8.67;;;;;;;6.58;100.00;102572.13;2054617;28;20214;-64
2022/10/21 03:48:18;;;;;;;14.30;9.67;;;;;;;6.51;100.00;102570.00;2055338;28;20189;-64
2022/10/21 03:49:18;;;;;;;12.73;9.63;;;;;;;6.48;100.00;102573.50;2055700;28;20237;-64
2022/10/21 03:50:19;;;;;;;13.00;9.70;;;;;;;6.27;100.00;102541.88;2054952;28;20238;-64
2022/10/21 03:51:19;;;;;;;13.80;9.77;;;;;;;6.42;100.00;102571.38;2054915;28;20240;-64
2022/10/21 03:52:20;;;;;;;14.70;9.30;;;;;;;6.44;100.00;102572.59;2054994;28;20286;-64
2022/10/21 03:53:20;;;;;;;13.77;8.93;;;;;;;6.47;100.00;102577.38;2054978;28;20191;-64
2022/10/21 03:54:21;;;;;;;11.47;8.73;;;;;;;6.49;100.00;102579.78;2055019;28;20286;-64
2022/10/21 03:55:24;;;;;;;15.17;9.80;;;;;;;6.52;100.00;102571.59;2054739;28;20194;-64
2022/10/21 03:56:24;;;;;;;14.30;9.32;;;;;;;6.46;100.00;102580.53;2055295;28;20197;-64
2022/10/21 03:57:24;;;;;;;11.13;8.77;;;;;;;6.43;100.00;102581.22;2054379;28;20252;-64
2022/10/21 03:58:28;;;;;;;17.77;8.90;;;;;;;6.38;100.00;102571.28;2055863;28;20200;-64
2022/10/21 03:59:28;;;;;;;12.75;8.73;;;;;;;6.34;100.00;102572.34;2053590;28;20203;-64
2022/10/21 04:00:31;;;;;;;11.53;8.30;;;;;;;6.26;100.00;102568.59;2055104;28;20186;-64
2022/10/21 04:01:31;;;;;;;11.45;8.18;;;;;;;6.21;100.00;102581.88;2052852;28;20461;-64
2022/10/21 04:02:31;;;;;;;12.77;8.40;;;;;;;6.21;100.00;102574.38;2053526;28;20193;-64
2022/10/21 04:03:32;;;;;;;10.73;8.40;;;;;;;6.15;100.00;102580.53;2052821;28;20213;-64
2022/10/21 04:04:32;;;;;;;12.10;8.73;;;;;;;6.12;100.00;102582.03;2053293;28;20217;-64
2022/10/21 04:05:33;;;;;;;12.80;8.60;;;;;;;5.42;100.00;102472.88;2054915;28;20252;-64
2022/10/21 04:06:34;;;;;;;16.83;8.87;;;;;;;5.98;100.00;102583.63;2054225;28;20191;-64
2022/10/21 04:07:35;;;;;;;15.20;9.13;;;;;;;5.96;100.00;102574.94;2052936;28;20472;-64
2022/10/21 04:08:35;;;;;;;14.17;9.00;;;;;;;5.82;100.00;102547.84;2053055;28;20244;-64
2022/10/21 04:09:36;;;;;;;14.03;8.57;;;;;;;5.95;100.00;102576.09;2052730;28;20240;-64
2022/10/21 04:10:36;;;;;;;13.13;8.40;;;;;;;5.98;100.00;102576.19;2052476;28;20199;-64
2022/10/21 04:11:37;;;;;;;11.03;7.37;;;;;;;6.02;100.00;102577.06;2054823;28;20189;-64
2022/10/21 04:12:37;;;;;;;12.20;7.70;;;;;;;6.05;100.00;102572.81;2053499;28;20292;-64
2022/10/21 04:13:38;;;;;;;11.50;7.63;;;;;;;6.06;100.00;102568.91;2053275;28;20244;-64
2022/10/21 04:14:38;;;;;;;8.97;7.67;;;;;;;6.07;100.00;102573.25;2053239;28;21416;-64
2022/10/21 04:15:39;;;;;;;10.73;7.53;;;;;;;5.81;100.00;102531.69;2052472;28;20290;-64
2022/10/21 04:16:39;;;;;;;12.33;7.93;;;;;;;6.05;100.00;102561.81;2053217;28;20225;-64
2022/10/21 04:17:40;;;;;;;8.80;7.50;;;;;;;6.01;100.00;102558.16;2054498;28;22518;-64
2022/10/21 04:18:41;;;;;;;13.13;7.33;;;;;;;6.08;100.00;102581.16;2053155;28;20195;-64
2022/10/21 04:19:41;;;;;;;11.87;7.57;;;;;;;5.37;100.00;102462.16;2052235;28;20293;-64
2022/10/21 04:20:42;;;;;;;8.50;7.03;;;;;;;6.09;100.00;102582.75;2052764;28;20204;-64
2022/10/21 04:21:43;;;;;;;9.57;7.07;;;;;;;5.46;100.00;102472.97;2052475;28;20257;-64
2022/10/21 04:22:43;;;;;;;11.13;7.97;;;;;;;6.15;100.00;102583.28;2052588;28;20879;-64
2022/10/21 04:23:44;;;;;;;13.57;8.07;;;;;;;6.18;100.00;102580.63;2054759;28;20223;-64
2022/10/21 04:24:44;;;;;;;10.40;7.77;;;;;;;6.21;100.00;102590.13;2053254;28;20889;-64
2022/10/21 04:25:46;;;;;;;16.23;8.47;;;;;;;6.21;100.00;102579.88;2052525;28;20202;-64
2022/10/21 04:26:46;;;;;;;13.45;8.07;;;;;;;6.22;100.00;102576.00;2052885;28;20655;-64
2022/10/21 04:27:47;;;;;;;15.20;8.00;;;;;;;6.21;100.00;102579.13;2052350;28;20538;-64
2022/10/21 04:28:47;;;;;;;14.00;6.77;;;;;;;5.88;100.00;102521.66;2052476;28;20286;-64
2022/10/21 04:29:48;;;;;;;12.30;7.30;;;;;;;6.25;100.00;102589.03;2055408;28;20195;-64
2022/10/21 04:30:49;;;;;;;13.27;7.33;;;;;;;6.24;100.00;102570.13;2052793;28;20756;-64
2022/10/21 04:31:49;;;;;;;11.02;7.40;;;;;;;5.91;100.00;102514.66;2052668;28;20698;-64
2022/10/21 04:32:50;;;;;;;9.17;7.10;;;;;;;6.23;100.00;102569.34;2053037;28;20283;-64
2022/10/21 04:33:50;;;;;;;12.07;7.33;;;;;;;6.26;100.00;102574.13;2052669;28;20209;-64
2022/10/21 04:34:51;;;;;;;12.93;7.47;;;;;;;6.03;100.00;102545.63;2052875;28;20642;-64
2022/10/21 04:35:54;;;;;;;11.80;7.63;;;;;;;6.18;100.00;102572.38;2054716;28;20224;-64
2022/10/21 04:36:55;;;;;;;11.73;8.23;;;;;;;6.21;100.00;102579.13;2052833;28;20286;-64
2022/10/21 04:37:55;;;;;;;12.77;9.27;;;;;;;6.15;100.00;102583.28;2052871;28;20676;-64
2022/10/21 04:38:56;;;;;;;17.80;14.13;;;;;;;6.23;100.00;102593.31;2052931;28;20205;-64
2022/10/21 04:39:56;;;;;;;18.63;13.53;;;;;;;6.00;100.00;102551.84;2052626;28;20201;-64
2022/10/21 04:41:01;;;;;;;20.70;12.40;;;;;;;6.21;100.00;102581.88;2054003;28;20204;-64
2022/10/21 04:42:02;;;;;;;21.42;11.50;;;;;;;6.19;100.00;102576.72;2053025;28;20186;-64
2022/10/21 04:43:03;;;;;;;25.55;11.82;;;;;;;5.72;100.00;102495.25;2054443;28;21000;-65
2022/10/21 04:44:05;;;;;;;16.37;10.07;;;;;;;6.21;100.00;102579.13;2052615;28;20198;-64
2022/10/21 04:45:06;;;;;;;14.98;9.50;;;;;;;6.17;100.00;102579.03;2051680;28;20285;-64
2022/10/21 04:46:13;;;;;;;17.40;10.48;;;;;;;6.07;100.00;102565.78;2052198;28;20194;-64
2022/10/21 04:47:13;;;;;;;19.00;10.85;;;;;;;6.13;100.00;102577.31;2049499;28;20209;-64
2022/10/21 04:48:14;;;;;;;17.37;10.93;;;;;;;6.12;100.00;102578.47;2048941;28;20662;-64
2022/10/21 04:49:14;;;;;;;19.10;9.73;;;;;;;5.51;100.00;102491.97;2052515;28;20277;-64
2022/10/21 04:50:15;;;;;;;14.93;9.37;;;;;;;6.06;100.00;102572.44;2048665;28;20229;-64
2022/10/21 04:51:18;;;;;;;25.03;11.57;;;;;;;6.04;100.00;102577.50;2053191;28;20769;-65
2022/10/21 04:52:18;;;;;;;21.42;11.05;;;;;;;6.01;100.00;102577.41;2049714;28;20218;-65
2022/10/21 04:53:21;;;;;;;38.57;19.03;;;;;;;6.01;100.00;102582.91;2052280;28;20205;-65
2022/10/21 04:54:21;;;;;;;52.83;22.27;;;;;;;5.99;100.00;102574.19;2051863;28;20186;-65
2022/10/21 04:55:21;;;;;;;58.43;26.27;;;;;;;5.91;100.00;102569.69;2053735;28;20196;-65
2022/10/21 04:56:22;;;;;;;62.97;24.83;;;;;;;5.83;100.00;102574.19;2048187;28;20194;-65